Newport Municipal Airport
KONP : rendu visible

Aérodrome :











RETROUVEZ-NOUS SUR...

 
LOGIN :

S'inscrire | Disclaimer

   EN    FR    IT 

 









Légende :    VFR   VFR Marginal   IFR   IFR Intensif   IFR Très Intensif
Visi : 
Plafond : 
>= 8 km
>= 3000ft
5 à 8 km
1000 à 3000 ft
1500m à 5 km
500 à 1000 ft
800 à 1500m
200 à 500 ft
< 800m
< 200 ft
Symboles :   Orages  Brouillard  Fortes neiges  Fortes précipitations  Vent > 20 kt






- Altitude de l'aérodrome : 160 ft


KONP - Newport Municipal

DERNIER METAR :
  • 221957Z AUTO 32004KT 7SM CLR 11/06 A3023 RMK AO2

METARs EXPIRÉS :
  • 221937Z AUTO 00000KT 10SM CLR 11/06 A3024 RMK AO2
  • 221910Z AUTO 08003KT 10SM CLR 10/05 A3025 RMK AO2
  • 221855Z AUTO 06004KT 10SM CLR 09/05 A3025 RMK AO2
  • 221835Z AUTO 05003KT 10SM CLR 08/05 A3025 RMK AO2
  • 221815Z AUTO 09004KT 10SM CLR 08/05 A3025 RMK AO2
  • 221755Z AUTO 12004KT 10SM CLR 07/05 A3026 RMK AO2
  • 221735Z AUTO 11003KT 10SM CLR 06/06 A3026 RMK AO2
  • 221715Z AUTO 11004KT 10SM SCT026 BKN033 05/05 RMK AO2

TAF KONP
Valide du 22 à 18h jusqu'au 23 à 18h UTC


221724Z 2218/2318 10005KT P6SM SCT025 BKN035
FM230900 19023G30KT P6SM -RA OVC025
FM231400 20029G37KT P6SM -RA BKN015 OVC025



MET'MAP, la Météo Aéronautique d'un coup d'oeil ! - Copyright ORBIFLY Décembre 2007 - Disclaimer

ORBIFLY MET'MAP TEAM :

Programmation & Développement : Alexandra Zaïnal
Sur une idée originale de : Baudouin d'Aumeries
Assistance à la programmation : Marc-Olivier Méhu
Soutien technique & logistique : Manuel Goepfert

Contact : metmap@orbifly.com




SOURCES & CREDITS :

   NOAA       Earth
Advisory